WXM80 ListenWXM80 Stop

You find our weather info also at:

UK Metoffice

WeatherCloud

Weather Underground

Northeastern Weather Network

AWEKAS

Citizen Weather Observer Program (CWOP)

HAMweather, WeatherForYou, PWS Weather


Weather Underground History page Text

Daily Summary for October 8, 2017 Units:  English    Metric   Both
« Previous Day
Next Day »
Daily Weekly Monthly Yearly Custom
  High: Low: Average:
Temperature: 76.1 °F 71.2 °F 73.3 °F
Dew Point: 74.1 °F 67.8 °F 71.2 °F
Humidity: 97 % 88 % 93 %
Wind Speed: 6.2 mph 0.0 mph 2.1 mph
Wind Gust: 13.8 mph - -
Wind:- - SSW
Pressure: 29.98 in 29.82 in -
Precipitation: 0.24 in    
Historical Graphs
 
 
Tabular Data for October 8, 2017
Time Temperature Dew Point Pressure Wind Wind Speed Wind Gust Humidity Rainfall Rate (Hourly)
00:01 71.3 °F 67.9 °F 29.98 in SSE 3.6 mph 3.6 mph 89 % 0.00 in
00:11 71.3 °F 67.9 °F 29.98 in South 1.7 mph 4.0 mph 89 % 0.00 in
00:16 71.3 °F 67.9 °F 29.98 in SSW 0.7 mph 3.5 mph 89 % 0.00 in
00:21 71.2 °F 67.8 °F 29.98 in South 1.6 mph 3.5 mph 89 % 0.00 in
00:31 71.3 °F 67.9 °F 29.97 in SSE 0.8 mph 4.6 mph 89 % 0.00 in
00:36 71.4 °F 68.0 °F 29.97 in South 2.4 mph 4.6 mph 89 % 0.00 in
00:41 71.4 °F 68.0 °F 29.96 in South 1.8 mph 4.6 mph 89 % 0.00 in
00:46 71.5 °F 68.1 °F 29.97 in SW 2.6 mph 5.0 mph 89 % 0.00 in
00:51 71.5 °F 68.1 °F 29.97 in SSW 1.2 mph 3.5 mph 89 % 0.00 in
00:56 71.5 °F 68.1 °F 29.97 in SE 2.3 mph 4.0 mph 89 % 0.00 in
01:01 71.6 °F 68.2 °F 29.97 in SSW 2.9 mph 5.8 mph 89 % 0.00 in
01:06 71.7 °F 68.3 °F 29.97 in SSW 2.3 mph 4.6 mph 89 % 0.00 in
01:11 71.8 °F 68.4 °F 29.97 in SSW 2.1 mph 4.6 mph 89 % 0.00 in
01:16 71.9 °F 68.5 °F 29.97 in SSW 2.6 mph 5.0 mph 89 % 0.00 in
01:21 71.9 °F 68.5 °F 29.97 in South 1.6 mph 3.5 mph 89 % 0.00 in
01:26 72.0 °F 68.2 °F 29.97 in South 1.9 mph 3.5 mph 88 % 0.00 in
01:31 72.1 °F 68.3 °F 29.97 in South 2.6 mph 9.0 mph 88 % 0.00 in
01:36 72.2 °F 68.4 °F 29.97 in SSW 4.4 mph 11.0 mph 88 % 0.00 in
01:41 72.2 °F 68.4 °F 29.97 in South 6.2 mph 8.1 mph 88 % 0.00 in
01:46 72.3 °F 68.5 °F 29.96 in SSW 2.3 mph 6.9 mph 88 % 0.00 in
01:51 72.4 °F 68.6 °F 29.97 in SW 4.7 mph 6.9 mph 88 % 0.00 in
01:56 72.4 °F 68.6 °F 29.97 in SSW 3.6 mph 9.2 mph 88 % 0.00 in
02:01 72.5 °F 68.7 °F 29.96 in SW 1.7 mph 5.8 mph 88 % 0.00 in
02:06 72.5 °F 68.7 °F 29.96 in SE 4.2 mph 11.5 mph 88 % 0.00 in
02:11 72.5 °F 68.7 °F 29.96 in South 3.4 mph 6.9 mph 88 % 0.00 in
02:16 72.5 °F 69.1 °F 29.96 in South 5.4 mph 9.0 mph 89 % 0.00 in
02:22 72.6 °F 69.2 °F 29.96 in SSE 2.1 mph 6.0 mph 89 % 0.00 in
02:27 72.5 °F 69.1 °F 29.95 in SSW 4.1 mph 10.4 mph 89 % 0.00 in
02:32 72.6 °F 69.2 °F 29.95 in SE 1.5 mph 5.8 mph 89 % 0.00 in
02:42 72.5 °F 69.1 °F 29.95 in ESE 3.6 mph 4.6 mph 89 % 0.00 in
02:47 72.5 °F 69.1 °F 29.95 in WSW 2.8 mph 9.0 mph 89 % 0.00 in
02:52 72.5 °F 69.1 °F 29.95 in ESE 1.4 mph 3.5 mph 89 % 0.00 in
02:57 72.5 °F 69.1 °F 29.94 in SSW 1.8 mph 5.8 mph 89 % 0.00 in
03:02 72.4 °F 69.0 °F 29.95 in SSW 3.8 mph 6.9 mph 89 % 0.00 in
03:07 72.4 °F 69.0 °F 29.95 in South 1.5 mph 5.8 mph 89 % 0.00 in
03:12 72.5 °F 69.1 °F 29.94 in SSE 3.4 mph 9.2 mph 89 % 0.00 in
03:17 72.5 °F 69.4 °F 29.95 in SSE 2.8 mph 6.9 mph 90 % 0.00 in
03:22 72.5 °F 69.4 °F 29.94 in SSW 3.9 mph 6.9 mph 90 % 0.00 in
03:27 72.4 °F 69.3 °F 29.94 in SE 2.8 mph 9.2 mph 90 % 0.00 in
03:32 72.4 °F 69.3 °F 29.94 in SSW 1.8 mph 3.5 mph 90 % 0.00 in
03:37 72.5 °F 69.4 °F 29.94 in SSW 2.6 mph 11.5 mph 90 % 0.00 in
03:42 72.5 °F 69.4 °F 29.94 in SSW 4.6 mph 9.2 mph 90 % 0.00 in
03:47 72.5 °F 69.4 °F 29.94 in SW 2.4 mph 9.0 mph 90 % 0.00 in
03:52 72.5 °F 69.4 °F 29.94 in SSW 3.7 mph 5.8 mph 90 % 0.00 in
03:57 72.6 °F 69.5 °F 29.93 in SE 4.0 mph 5.8 mph 90 % 0.00 in
04:02 72.6 °F 69.8 °F 29.93 in South 3.0 mph 4.0 mph 91 % 0.00 in
04:07 72.6 °F 69.8 °F 29.93 in South 4.8 mph 5.8 mph 91 % 0.00 in
04:13 72.6 °F 69.8 °F 29.93 in SE 3.0 mph 4.6 mph 91 % 0.00 in
04:18 72.5 °F 69.7 °F 29.93 in South 2.7 mph 8.1 mph 91 % 0.00 in
04:23 72.5 °F 69.7 °F 29.93 in SSE 3.1 mph 8.1 mph 91 % 0.00 in
04:28 72.4 °F 69.6 °F 29.93 in SSE 5.2 mph 8.1 mph 91 % 0.00 in
04:33 72.4 °F 69.6 °F 29.93 in SW 2.4 mph 4.6 mph 91 % 0.00 in
04:38 72.4 °F 69.6 °F 29.92 in South 2.9 mph 6.0 mph 91 % 0.00 in
04:43 72.4 °F 69.6 °F 29.92 in South 4.1 mph 8.1 mph 91 % 0.00 in
04:48 72.3 °F 69.8 °F 29.92 in SSW 4.9 mph 8.1 mph 92 % 0.00 in
04:58 72.3 °F 69.8 °F 29.92 in SW 1.4 mph 3.5 mph 92 % 0.00 in
05:03 72.2 °F 69.7 °F 29.92 in South 2.7 mph 8.1 mph 92 % 0.00 in
05:08 72.1 °F 69.6 °F 29.91 in SSE 2.8 mph 4.6 mph 92 % 0.00 in
05:13 72.1 °F 69.6 °F 29.91 in SSE 2.3 mph 8.1 mph 92 % 0.00 in
05:18 72.1 °F 69.6 °F 29.91 in South 3.2 mph 5.8 mph 92 % 0.00 in
05:23 72.1 °F 69.6 °F 29.91 in South 2.8 mph 9.2 mph 92 % 0.00 in
05:33 72.1 °F 69.6 °F 29.91 in SW 1.1 mph 4.6 mph 92 % 0.00 in
05:38 72.1 °F 69.6 °F 29.91 in South 4.4 mph 11.5 mph 92 % 0.00 in
05:43 72.1 °F 69.6 °F 29.91 in SSE 0.8 mph 4.6 mph 92 % 0.00 in
05:48 72.1 °F 69.6 °F 29.91 in South 2.9 mph 6.9 mph 92 % 0.00 in
05:53 72.1 °F 69.6 °F 29.91 in SSW 1.3 mph 9.2 mph 92 % 0.00 in
05:59 72.1 °F 69.6 °F 29.91 in SSW 2.4 mph 5.8 mph 92 % 0.00 in
06:04 72.2 °F 69.7 °F 29.91 in SW 2.2 mph 5.8 mph 92 % 0.00 in
06:09 72.2 °F 69.7 °F 29.91 in South 3.3 mph 5.8 mph 92 % 0.00 in
06:14 72.2 °F 69.7 °F 29.90 in South 2.0 mph 4.6 mph 92 % 0.00 in
06:19 72.2 °F 69.7 °F 29.90 in SE 3.6 mph 8.1 mph 92 % 0.00 in
06:24 72.2 °F 69.7 °F 29.91 in SSW 3.4 mph 10.0 mph 92 % 0.00 in
06:29 72.3 °F 69.5 °F 29.90 in SSW 5.4 mph 11.5 mph 91 % 0.00 in
06:34 72.3 °F 69.5 °F 29.90 in SSW 0.8 mph 8.1 mph 91 % 0.00 in
06:39 72.4 °F 69.6 °F 29.90 in SSW 0.7 mph 5.8 mph 91 % 0.00 in
06:44 72.4 °F 69.6 °F 29.89 in South 5.0 mph 13.8 mph 91 % 0.00 in
06:49 72.4 °F 69.6 °F 29.89 in SSE 1.2 mph 5.8 mph 91 % 0.00 in
06:54 72.4 °F 69.6 °F 29.89 in South 1.2 mph 6.9 mph 91 % 0.00 in
06:59 72.4 °F 69.6 °F 29.90 in SW 1.3 mph 4.6 mph 91 % 0.00 in
07:04 72.4 °F 69.6 °F 29.90 in SSE 3.6 mph 9.2 mph 91 % 0.00 in
07:09 72.4 °F 69.6 °F 29.90 in SW 2.0 mph 5.0 mph 91 % 0.00 in
07:14 72.4 °F 69.6 °F 29.90 in SE 3.0 mph 4.6 mph 91 % 0.00 in
07:19 72.4 °F 69.6 °F 29.90 in WSW 1.7 mph 6.0 mph 91 % 0.00 in
07:24 72.4 °F 69.6 °F 29.89 in SSW 4.8 mph 11.0 mph 91 % 0.00 in
07:29 72.4 °F 69.6 °F 29.89 in SE 3.7 mph 6.9 mph 91 % 0.00 in
07:34 72.4 °F 69.6 °F 29.89 in SSW 2.5 mph 5.8 mph 91 % 0.00 in
07:39 72.4 °F 69.6 °F 29.89 in SSE 2.7 mph 4.6 mph 91 % 0.00 in
07:40 72.4 °F 69.6 °F 29.89 in ESE 1.2 mph 4.6 mph 91 % 0.00 in
07:45 72.5 °F 69.7 °F 29.89 in SW 5.3 mph 10.0 mph 91 % 0.00 in
07:50 72.6 °F 69.8 °F 29.90 in SSW 3.6 mph 8.0 mph 91 % 0.00 in
07:55 72.6 °F 69.8 °F 29.89 in South 1.0 mph 8.1 mph 91 % 0.00 in
08:05 72.8 °F 70.0 °F 29.90 in SW 4.4 mph 8.1 mph 91 % 0.00 in
08:11 72.9 °F 70.1 °F 29.90 in SSW 2.8 mph 9.2 mph 91 % 0.00 in
08:16 73.0 °F 70.2 °F 29.90 in SSW 3.5 mph 5.8 mph 91 % 0.00 in
08:21 73.0 °F 70.2 °F 29.90 in SSW 2.9 mph 6.9 mph 91 % 0.00 in
08:26 73.1 °F 70.3 °F 29.89 in SSW 4.1 mph 6.9 mph 91 % 0.00 in
08:30 73.1 °F 70.3 °F 29.89 in South 2.7 mph 5.8 mph 91 % 0.00 in
08:35 73.1 °F 70.3 °F 29.89 in SSW 3.0 mph 5.0 mph 91 % 0.00 in
08:40 73.1 °F 70.3 °F 29.89 in SW 3.2 mph 8.1 mph 91 % 0.01 in
08:46 73.0 °F 70.2 °F 29.89 in South 6.0 mph 12.0 mph 91 % 0.00 in
08:51 72.8 °F 70.3 °F 29.89 in South 1.0 mph 6.0 mph 92 % 0.01 in
08:56 72.6 °F 70.2 °F 29.89 in SSW 5.0 mph 9.0 mph 92 % 0.00 in
09:01 72.4 °F 70.3 °F 29.88 in SSW 3.1 mph 4.0 mph 93 % 0.05 in
09:06 72.3 °F 70.2 °F 29.89 in South 3.2 mph 3.5 mph 93 % 0.06 in
09:11 72.1 °F 70.0 °F 29.88 in SSW 3.2 mph 8.1 mph 93 % 0.06 in
09:16 72.0 °F 70.2 °F 29.88 in SE 1.3 mph 4.6 mph 94 % 0.07 in
09:18 71.9 °F 70.1 °F 29.88 in South 5.2 mph 6.9 mph 94 % 0.07 in
09:23 71.8 °F 70.0 °F 29.89 in South 3.5 mph 10.4 mph 94 % 0.07 in
09:28 71.8 °F 70.0 °F 29.89 in SW 3.8 mph 6.9 mph 94 % 0.08 in
09:33 71.7 °F 69.9 °F 29.89 in South 3.9 mph 8.1 mph 94 % 0.09 in
09:38 71.6 °F 70.1 °F 29.89 in SSW 4.1 mph 13.8 mph 95 % 0.09 in
09:43 71.5 °F 70.0 °F 29.88 in SW 5.0 mph 10.0 mph 95 % 0.10 in
09:48 71.4 °F 69.9 °F 29.88 in South 4.2 mph 8.1 mph 95 % 0.10 in
09:53 71.3 °F 69.8 °F 29.88 in SSW 1.9 mph 11.5 mph 95 % 0.10 in
09:59 71.3 °F 69.8 °F 29.88 in South 3.4 mph 5.8 mph 95 % 0.10 in
10:04 71.3 °F 69.8 °F 29.87 in South 2.5 mph 9.2 mph 95 % 0.11 in
10:09 71.3 °F 70.1 °F 29.87 in SW 1.4 mph 5.8 mph 96 % 0.10 in
10:14 71.3 °F 70.1 °F 29.87 in South 3.1 mph 6.9 mph 96 % 0.11 in
10:19 71.4 °F 70.2 °F 29.87 in South 2.1 mph 4.6 mph 96 % 0.11 in
10:24 71.3 °F 70.1 °F 29.87 in SSW 3.6 mph 8.1 mph 96 % 0.12 in
10:34 71.3 °F 70.1 °F 29.87 in SSW 5.8 mph 8.1 mph 96 % 0.10 in
10:39 71.4 °F 70.2 °F 29.87 in SSW 2.3 mph 4.0 mph 96 % 0.11 in
10:44 71.5 °F 70.3 °F 29.87 in South 3.6 mph 11.5 mph 96 % 0.10 in
10:49 71.5 °F 70.3 °F 29.88 in SSW 5.6 mph 12.7 mph 96 % 0.10 in
10:54 71.6 °F 70.4 °F 29.88 in SSW 3.2 mph 7.0 mph 96 % 0.08 in
10:59 71.7 °F 70.5 °F 29.88 in WSW 2.7 mph 6.9 mph 96 % 0.07 in
11:05 71.7 °F 70.5 °F 29.88 in SSW 2.9 mph 6.9 mph 96 % 0.07 in
11:10 71.8 °F 70.9 °F 29.89 in WSW 2.9 mph 6.9 mph 97 % 0.06 in
11:15 71.8 °F 70.9 °F 29.89 in SW 2.3 mph 4.0 mph 97 % 0.06 in
11:20 71.9 °F 71.0 °F 29.88 in SSW 0.8 mph 3.5 mph 97 % 0.05 in
11:25 71.9 °F 71.0 °F 29.89 in SSW 3.4 mph 9.2 mph 97 % 0.04 in
11:30 71.9 °F 71.0 °F 29.89 in SW 1.3 mph 6.9 mph 97 % 0.03 in
11:35 72.0 °F 71.1 °F 29.88 in South 3.7 mph 8.0 mph 97 % 0.03 in
11:40 72.0 °F 71.1 °F 29.88 in South 1.2 mph 4.6 mph 97 % 0.02 in
11:45 72.0 °F 70.8 °F 29.88 in SSW 2.4 mph 6.0 mph 96 % 0.02 in
11:50 72.1 °F 70.9 °F 29.88 in SSW 2.0 mph 5.8 mph 96 % 0.01 in
11:55 72.1 °F 70.9 °F 29.88 in SW 1.9 mph 9.0 mph 96 % 0.01 in
12:00 72.2 °F 71.0 °F 29.88 in SSW 2.8 mph 8.0 mph 96 % 0.01 in
12:05 72.2 °F 71.3 °F 29.88 in SW 1.4 mph 6.9 mph 97 % 0.00 in
12:10 72.4 °F 71.5 °F 29.88 in NNW 0.9 mph 4.6 mph 97 % 0.00 in
12:15 72.5 °F 71.6 °F 29.88 in SSW 0.6 mph 2.3 mph 97 % 0.01 in
12:20 72.6 °F 71.7 °F 29.88 in West 1.7 mph 5.0 mph 97 % 0.01 in
12:25 72.8 °F 71.9 °F 29.88 in SSW 2.8 mph 5.8 mph 97 % 0.01 in
12:30 72.9 °F 72.0 °F 29.88 in SSW 3.8 mph 6.0 mph 97 % 0.01 in
12:40 73.2 °F 72.3 °F 29.88 in South 0.6 mph 3.0 mph 97 % 0.01 in
12:45 73.4 °F 72.5 °F 29.88 in SSE 0.2 mph 2.3 mph 97 % 0.01 in
12:50 73.5 °F 72.6 °F 29.89 in South 1.4 mph 3.5 mph 97 % 0.01 in
12:55 73.7 °F 72.8 °F 29.88 in SSW 3.7 mph 4.6 mph 97 % 0.01 in
13:00 73.8 °F 72.9 °F 29.88 in SSW 3.8 mph 5.0 mph 97 % 0.01 in
13:06 73.9 °F 73.0 °F 29.88 in SSW 2.0 mph 7.0 mph 97 % 0.00 in
13:11 74.0 °F 73.1 °F 29.88 in SSW 1.0 mph 12.0 mph 97 % 0.00 in
13:21 74.2 °F 73.0 °F 29.88 in SSW 2.8 mph 5.8 mph 96 % 0.00 in
13:26 74.2 °F 73.0 °F 29.87 in SSE 0.5 mph 3.5 mph 96 % 0.00 in
13:31 74.3 °F 73.1 °F 29.87 in SSE 1.6 mph 4.6 mph 96 % 0.00 in
13:36 74.4 °F 73.2 °F 29.87 in SSE 0.6 mph 3.5 mph 96 % 0.00 in
13:41 74.4 °F 73.2 °F 29.86 in South 0.3 mph 1.2 mph 96 % 0.00 in
13:46 74.4 °F 73.2 °F 29.86 in South 1.8 mph 3.5 mph 96 % 0.00 in
13:51 74.6 °F 73.4 °F 29.86 in SSW 2.0 mph 3.5 mph 96 % 0.00 in
13:56 74.7 °F 73.5 °F 29.86 in SW 1.7 mph 5.8 mph 96 % 0.00 in
14:01 74.7 °F 73.2 °F 29.86 in SSW 0.9 mph 3.5 mph 95 % 0.00 in
14:06 74.8 °F 73.3 °F 29.86 in SE 0.8 mph 5.8 mph 95 % 0.00 in
14:11 74.8 °F 73.3 °F 29.86 in SSW 0.6 mph 2.3 mph 95 % 0.00 in
14:16 74.8 °F 73.3 °F 29.86 in SSW 1.3 mph 6.9 mph 95 % 0.00 in
14:21 74.8 °F 73.3 °F 29.87 in SSW 3.1 mph 5.8 mph 95 % 0.00 in
14:26 74.9 °F 73.4 °F 29.86 in SW 2.3 mph 5.8 mph 95 % 0.00 in
14:31 75.0 °F 73.5 °F 29.86 in South 4.4 mph 8.0 mph 95 % 0.00 in
14:36 75.1 °F 73.6 °F 29.86 in SSW 1.4 mph 5.0 mph 95 % 0.00 in
14:41 75.2 °F 73.7 °F 29.86 in SW 1.3 mph 5.0 mph 95 % 0.00 in
14:46 75.4 °F 73.9 °F 29.86 in South 2.9 mph 8.1 mph 95 % 0.00 in
14:51 75.5 °F 74.0 °F 29.86 in South 2.0 mph 4.6 mph 95 % 0.00 in
14:56 75.6 °F 74.1 °F 29.86 in SSW 3.7 mph 6.9 mph 95 % 0.00 in
15:01 75.8 °F 73.9 °F 29.86 in WSW 1.7 mph 3.0 mph 94 % 0.00 in
15:06 75.9 °F 74.0 °F 29.86 in SW 3.1 mph 5.0 mph 94 % 0.00 in
15:11 76.0 °F 73.8 °F 29.87 in South 0.1 mph 3.5 mph 93 % 0.00 in
15:16 76.0 °F 73.8 °F 29.86 in WSW 2.5 mph 3.5 mph 93 % 0.00 in
15:21 76.1 °F 73.9 °F 29.87 in SSW 0.7 mph 3.5 mph 93 % 0.00 in
15:26 76.0 °F 73.8 °F 29.86 in South 1.1 mph 4.0 mph 93 % 0.00 in
15:31 76.0 °F 73.5 °F 29.86 in SSW 2.5 mph 3.5 mph 92 % 0.00 in
15:36 76.0 °F 73.5 °F 29.86 in SSW 2.8 mph 5.0 mph 92 % 0.00 in
15:41 76.0 °F 73.5 °F 29.86 in SW 0.4 mph 3.5 mph 92 % 0.00 in
15:46 76.0 °F 73.5 °F 29.86 in SSW 2.8 mph 4.0 mph 92 % 0.00 in
15:51 76.0 °F 73.5 °F 29.87 in WSW 1.7 mph 4.6 mph 92 % 0.00 in
15:56 76.0 °F 73.5 °F 29.86 in SSW 2.5 mph 4.6 mph 92 % 0.00 in
16:01 76.0 °F 73.5 °F 29.86 in ESE 1.2 mph 3.5 mph 92 % 0.00 in
16:06 76.0 °F 73.5 °F 29.86 in SSW 2.7 mph 5.8 mph 92 % 0.00 in
16:11 75.9 °F 73.4 °F 29.86 in South 0.8 mph 9.2 mph 92 % 0.00 in
16:16 75.9 °F 73.4 °F 29.86 in SSW 1.2 mph 3.5 mph 92 % 0.00 in
16:22 75.8 °F 73.3 °F 29.86 in SW 0.1 mph 2.3 mph 92 % 0.00 in
16:27 75.8 °F 73.3 °F 29.86 in SSW 0.4 mph 3.5 mph 92 % 0.00 in
16:32 75.7 °F 73.2 °F 29.86 in SSW 2.4 mph 6.9 mph 92 % 0.00 in
16:37 75.7 °F 73.2 °F 29.85 in SSW 2.5 mph 5.8 mph 92 % 0.00 in
16:42 75.6 °F 73.1 °F 29.86 in SW 2.4 mph 3.5 mph 92 % 0.00 in
16:47 75.6 °F 73.1 °F 29.86 in SSW 2.7 mph 4.6 mph 92 % 0.00 in
16:52 75.5 °F 73.0 °F 29.86 in SSW 1.2 mph 3.5 mph 92 % 0.00 in
16:57 75.5 °F 73.0 °F 29.86 in SSW 0.8 mph 2.3 mph 92 % 0.00 in
17:02 75.4 °F 72.9 °F 29.86 in SSW 1.6 mph 3.5 mph 92 % 0.00 in
17:07 75.3 °F 72.8 °F 29.86 in SSE 0.8 mph 3.5 mph 92 % 0.00 in
17:12 75.3 °F 72.8 °F 29.86 in South 0.3 mph 3.5 mph 92 % 0.00 in
17:17 75.3 °F 73.1 °F 29.86 in SSW 1.2 mph 3.5 mph 93 % 0.00 in
17:22 75.2 °F 73.0 °F 29.87 in SSW 1.2 mph 5.8 mph 93 % 0.00 in
17:27 75.2 °F 73.0 °F 29.87 in SW 0.7 mph 2.0 mph 93 % 0.00 in
17:32 75.1 °F 72.9 °F 29.87 in SSW 1.7 mph 4.0 mph 93 % 0.00 in
17:37 75.1 °F 72.9 °F 29.87 in SE 2.1 mph 3.5 mph 93 % 0.00 in
17:42 75.0 °F 72.8 °F 29.88 in South 1.0 mph 3.5 mph 93 % 0.00 in
17:47 75.0 °F 72.8 °F 29.88 in Calm   2.3 mph 93 % 0.00 in
17:53 74.9 °F 72.7 °F 29.88 in West 0.8 mph 1.2 mph 93 % 0.00 in
17:58 74.9 °F 72.7 °F 29.88 in West 2.8 mph 6.9 mph 93 % 0.00 in
18:03 74.8 °F 72.6 °F 29.88 in SSW 2.2 mph 4.6 mph 93 % 0.00 in
18:08 74.8 °F 72.6 °F 29.89 in WSW 0.5 mph 2.3 mph 93 % 0.00 in
18:13 74.7 °F 72.5 °F 29.89 in SSW 0.9 mph 3.5 mph 93 % 0.00 in
18:18 74.6 °F 72.4 °F 29.89 in SSW 2.1 mph 3.5 mph 93 % 0.00 in
18:23 74.6 °F 72.4 °F 29.89 in SW 0.3 mph 1.2 mph 93 % 0.00 in
18:28 74.5 °F 72.3 °F 29.90 in SW 0.6 mph 3.5 mph 93 % 0.00 in
18:33 74.4 °F 72.6 °F 29.90 in SW 0.4 mph 2.3 mph 94 % 0.00 in
18:38 74.4 °F 72.6 °F 29.90 in SW 1.0 mph 2.3 mph 94 % 0.00 in
18:43 74.3 °F 72.5 °F 29.90 in SW 0.6 mph 3.5 mph 94 % 0.00 in
18:48 74.2 °F 72.4 °F 29.90 in SW 0.7 mph 3.5 mph 94 % 0.00 in
18:53 74.2 °F 72.4 °F 29.90 in SW 0.1 mph 3.5 mph 94 % 0.00 in
18:55 74.2 °F 72.4 °F 29.90 in SSW 1.3 mph 3.5 mph 94 % 0.00 in
19:00 74.1 °F 72.3 °F 29.90 in SSW 2.0 mph 4.6 mph 94 % 0.00 in
19:05 74.1 °F 72.3 °F 29.90 in West 1.3 mph 3.5 mph 94 % 0.00 in
19:15 74.0 °F 72.2 °F 29.91 in SW 0.3 mph 1.2 mph 94 % 0.00 in
19:20 73.9 °F 72.1 °F 29.91 in SSW 1.9 mph 4.0 mph 94 % 0.00 in
19:30 73.9 °F 72.1 °F 29.91 in WSW 0.9 mph 3.5 mph 94 % 0.00 in
19:35 73.9 °F 72.4 °F 29.91 in SW 0.9 mph 2.3 mph 95 % 0.00 in
19:40 73.9 °F 72.4 °F 29.91 in SW 0.5 mph 3.5 mph 95 % 0.00 in
19:50 73.8 °F 72.3 °F 29.91 in SW 1.1 mph 3.5 mph 95 % 0.00 in
19:55 73.8 °F 72.3 °F 29.91 in South 2.1 mph 3.5 mph 95 % 0.00 in
20:00 73.8 °F 72.3 °F 29.91 in WSW 0.9 mph 3.5 mph 95 % 0.00 in
20:05 73.8 °F 72.3 °F 29.91 in WSW 0.6 mph 2.3 mph 95 % 0.00 in
20:10 73.8 °F 72.3 °F 29.92 in WSW 2.1 mph 5.0 mph 95 % 0.00 in
20:15 73.8 °F 72.3 °F 29.92 in WSW 0.2 mph 2.3 mph 95 % 0.00 in
20:20 73.8 °F 72.3 °F 29.92 in SW 0.7 mph 3.5 mph 95 % 0.00 in
20:25 73.7 °F 72.2 °F 29.91 in SW 0.6 mph 3.5 mph 95 % 0.00 in
20:30 73.8 °F 72.3 °F 29.92 in SW 1.8 mph 5.8 mph 95 % 0.00 in
20:35 73.8 °F 72.6 °F 29.92 in SW 0.2 mph 2.3 mph 96 % 0.00 in
20:40 73.8 °F 72.6 °F 29.92 in SSW 1.7 mph 3.5 mph 96 % 0.00 in
20:45 73.8 °F 72.6 °F 29.92 in WSW 1.5 mph 4.0 mph 96 % 0.00 in
20:50 73.8 °F 72.6 °F 29.92 in SSW 2.2 mph 3.0 mph 96 % 0.00 in
20:55 73.8 °F 72.6 °F 29.92 in SE 0.5 mph 3.5 mph 96 % 0.00 in
21:00 73.9 °F 72.7 °F 29.92 in SW 0.5 mph 3.5 mph 96 % 0.00 in
21:05 73.9 °F 72.7 °F 29.93 in SSW 0.5 mph   96 % 0.00 in
21:15 73.9 °F 72.7 °F 29.93 in South 2.6 mph 5.0 mph 96 % 0.00 in
21:20 73.9 °F 72.7 °F 29.93 in WSW 1.5 mph 3.5 mph 96 % 0.00 in
21:25 73.9 °F 72.7 °F 29.93 in WSW 0.9 mph 3.5 mph 96 % 0.00 in
21:30 73.9 °F 72.7 °F 29.92 in WSW 0.4 mph 4.6 mph 96 % 0.00 in
21:35 73.9 °F 72.7 °F 29.93 in SW 1.3 mph 3.5 mph 96 % 0.00 in
21:41 74.0 °F 72.8 °F 29.93 in Calm   4.0 mph 96 % 0.00 in
21:42 74.0 °F 72.8 °F 29.93 in WSW 0.8 mph 3.0 mph 96 % 0.00 in
21:47 74.0 °F 72.8 °F 29.93 in SSW 1.9 mph 3.5 mph 96 % 0.00 in
21:52 74.0 °F 72.8 °F 29.93 in SW 0.5 mph 2.3 mph 96 % 0.00 in
22:02 74.1 °F 72.9 °F 29.93 in WSW 0.2 mph 1.2 mph 96 % 0.00 in
22:07 74.1 °F 72.9 °F 29.93 in SSW 1.1 mph 3.5 mph 96 % 0.00 in
22:12 74.1 °F 72.9 °F 29.93 in Calm     96 % 0.00 in
22:17 74.1 °F 72.9 °F 29.94 in Calm   1.2 mph 96 % 0.00 in
22:22 74.1 °F 72.9 °F 29.94 in SW 1.2 mph 3.5 mph 96 % 0.00 in
22:27 74.1 °F 72.9 °F 29.93 in SW 0.4 mph 5.8 mph 96 % 0.00 in
22:32 74.1 °F 72.9 °F 29.93 in Calm   1.0 mph 96 % 0.00 in
22:37 74.1 °F 72.9 °F 29.94 in SW 1.3 mph 2.3 mph 96 % 0.00 in
22:42 74.0 °F 72.8 °F 29.94 in Calm   1.2 mph 96 % 0.00 in
22:47 74.0 °F 72.8 °F 29.94 in WSW 1.0 mph 3.5 mph 96 % 0.00 in
22:52 74.1 °F 72.9 °F 29.94 in SW 0.8 mph 5.8 mph 96 % 0.00 in
22:57 74.1 °F 72.9 °F 29.94 in SW 0.1 mph 2.3 mph 96 % 0.00 in
23:02 74.1 °F 72.9 °F 29.95 in Calm   2.3 mph 96 % 0.00 in
23:07 74.0 °F 72.8 °F 29.95 in Calm   1.2 mph 96 % 0.00 in
23:14 74.0 °F 72.5 °F 29.95 in Calm   1.2 mph 95 % 0.00 in
23:19 74.0 °F 72.5 °F 29.95 in Calm     95 % 0.00 in
23:22 74.0 °F 72.5 °F 29.83 in Calm   1.2 mph 95 % 0.00 in
23:24 74.0 °F 72.5 °F 29.94 in SW 0.7 mph 2.3 mph 95 % 0.00 in
23:25 74.0 °F 72.5 °F 29.82 in SW 0.1 mph 1.2 mph 95 % 0.00 in
23:34 73.9 °F 72.4 °F 29.94 in Calm     95 % 0.00 in
23:37 73.9 °F 72.4 °F 29.94 in SW 0.2 mph 1.2 mph 95 % 0.00 in
23:42 73.9 °F 72.4 °F 29.94 in Calm   1.2 mph 95 % 0.00 in
23:43 73.9 °F 72.4 °F 29.94 in Calm   1.2 mph 95 % 0.00 in
23:48 73.9 °F 72.4 °F 29.94 in Calm     95 % 0.00 in
23:53 73.9 °F 72.4 °F 29.94 in Calm     95 % 0.00 in
23:58 73.8 °F 72.3 °F 29.94 in Calm   1.2 mph 95 % 0.00 in
Crab Meadow Weather
Compliments of Weather Underground - 2.75 mb

Script developed by  Jim McMurry - jmcmurry@mwt.net Adapted for the template by  Wim van der Kuil - Leuven-Template.eu

Dew Point: The dew point is the temperature to which air must be cooled, at constant barometric pressure, for water vapor to condense into water. The condensed water is called dew. When the dew point temperature falls below freezing it is called the frost point, as the water no longer creates dew but instead creates frost. The dew point is associated with relative humidity. A high relative humidity indicates that the dew point is closer to the current air temperature. If the relative humidity is 100%, the dew point is equal to the current temperature. Given a constant dew point, an increase in temperature will lead to a decrease in relative humidity.